Aviation WX

[Source: ADDS]
METAR
KFKL 222212Z AUTO 13011G17KT 10SM BKN017 OVC050 18/16 A2986 RMK AO2 =
TAF
KFKL 221722Z 2218/2318 11008KT P6SM VCSH OVC035 FM222200 11010KT P6SM VCSH OVC025 FM231100 13008KT P6SM VCSH OVC015 FM231700 18006KT 6SM -SHRA VCTS OVC015CB =

Clarion Airport T-Shirts

small